Current Conditions

Updated: 18-Dec-2018 8:13 PM  
Summary / Temperature Wind Rain






Feels like: 52°F

1-hour difference
0.5°F 0.5°F warmer than last hour.

24-hour difference
1.0°F1.0°F colder than yesterday at this time.

  Today Yesterday
High: 62.3°F
1:36 PM
60.5°F
1:32 PM
Low: 47.7°F
3:40 AM
48.7°F
11:56 PM
Calm WNW
0.0
Gust:  0.0 mph
0 Beaufort - Calm

Today: 5.0 - 11:20 AM
Month: 12.0 mph - Dec 4
Rain Today: 0.01 in
Current Rate (/hr): 0.000 in
Max Rate (/hr):
Rain Yesterday: 0.03 in
Storm Rain: 0.00 in
This Month: 0.33 in
Season Total: 2.07 in
Last Rain Event: Today
Humidity / Barometer Sun / Moon
Humidity: 92  
Dew Point: 49.7°F Increased 0.5°F in the last hour.
Barometer: 30.322 inHg  
Baro Trend: Steady
Sunrise: 7:03 AM
Sunset: 4:44 PM
Moonrise: 2:46 PM
Moonset: 3:31 AM
Sky Conditions UV Index
Summary: Mist, Partly cloudy
Visibility: 5 miles
Clouds: Partly cloudy @ 4,400 ft
KVIS - 7:56 PM PST
Current: 0.0  None 
Wednesday: 2.3  Low 
Thursday: 2.2  Low 
Air Quality Fire Danger
 Moderate 
Ozone 2 ppb
PM 2.5 20 μg/m3
8:10 PM PST
Current: 0  Low 

Local Alerts Local Forecast
Local NWS Alerts
Tonight

Partly
Cloudy
Low 43
Wed

Mostly
Sunny
High 60
Wed night

Mostly
Clear
Low 42
Thu

Partly
Cloudy
High 63
Thu night

Partly
Cloudy
Low 44
Fri

Mostly
Sunny
High 61
Fri night

Partly
Cloudy
Low 42

Local Radar Local Satellite Neighborhood Cam Sky Cam
Local Radar Local Satellite Neighborhood Cam Sky Cam


Nearby Airport Stations

KVIS - Visalia, California, USA
Distance from station: W 14mi, 23km
Updated: Tue, 18-Dec-2018 7:56pm PST
Mist, Partly cloudy
Mist, Partly cloudy
 Wind from calm
Wind: Calm
Temperature: 50°F , 10°C
Dew Point: 48°F , 9°C
Humidity: 94%
Barometer: 30.33 inHg , 1027.1 hPa
Summary: Mist
Clouds: Partly cloudy
Visibility: 5 miles , 8 km
Cloud details: Partly cloudy 4400 ft
2018/12/19 03:56 KVIS 190356Z AUTO 00000KT 5SM BR SCT044 10/09 A3033 RMK AO2 SLP280 T01000089 PNO $
KPTV - Porterville, California, USA
Distance from station: SSE 19mi, 31km
Updated: Tue, 18-Dec-2018 7:56pm PST
Overcast
Overcast
 Wind from calm
Wind: Calm
Temperature: 52°F , 11°C
Dew Point: 50°F , 10°C
Humidity: 94%
Barometer: 30.33 inHg , 1027.1 hPa
Clouds: Overcast
Visibility: 10 miles , 16 km
Cloud details: Overcast 4400 ft
2018/12/19 03:56 KPTV 190356Z AUTO 00000KT 10SM OVC044 11/10 A3033 RMK AO2 SLP287 T01110100

Metar display script from Saratoga-Weather.org



Visitor Map